Time;durP1;ratioP1;P1;durP2;ratioP2;P2;SDS_P1;SDS_P2;PMS_P1;PMS_P2;Temp;Humidity;BMP_temperature;BMP_pressure;BME280_temperature;BME280_humidity;BME280_pressure;Samples;Min_cycle;Max_cycle;Signal;HPM_P1;HPM_P2
2023/09/23 00:01:05;;;;;;;1.88;0.80;;;15.20;99.90;;;;;;2603214;46;19935;31
2023/09/23 00:03:39;;;;;;;2.80;1.10;;;15.20;99.90;;;;;;2585846;54;21049;31
2023/09/23 00:06:14;;;;;;;4.68;1.10;;;15.20;99.90;;;;;;2585978;54;20784;31
2023/09/23 00:08:56;;;;;;;3.13;1.60;;;15.20;99.90;;;;;;2586007;54;20026;31
2023/09/23 00:11:35;;;;;;;2.20;1.10;;;15.20;99.90;;;;;;2586062;54;20939;31
2023/09/23 00:14:12;;;;;;;3.33;1.40;;;15.30;99.90;;;;;;2585983;54;20056;31
2023/09/23 00:16:48;;;;;;;4.00;1.53;;;15.30;99.90;;;;;;2585623;54;20053;31
2023/09/23 00:19:22;;;;;;;2.95;1.05;;;15.20;99.90;;;;;;2585796;54;20266;31
2023/09/23 00:21:56;;;;;;;2.00;1.20;;;15.20;99.90;;;;;;2699170;39;21640;31
2023/09/23 00:24:36;;;;;;;3.10;1.27;;;15.20;99.90;;;;;;2604084;46;20026;31
2023/09/23 00:27:12;;;;;;;2.13;0.90;;;15.30;99.90;;;;;;2586051;54;20877;31
2023/09/23 00:29:51;;;;;;;2.80;1.00;;;15.30;99.90;;;;;;2585992;54;20836;31
2023/09/23 00:32:28;;;;;;;2.63;0.80;;;15.20;99.90;;;;;;2585754;54;21017;31
2023/09/23 00:35:06;;;;;;;2.42;1.15;;;15.20;99.90;;;;;;2586013;54;20033;31
2023/09/23 00:37:48;;;;;;;2.00;1.17;;;15.30;99.90;;;;;;2587091;46;20061;31
2023/09/23 00:40:32;;;;;;;2.40;1.40;;;15.30;99.90;;;;;;2599534;46;20628;31
2023/09/23 00:43:13;;;;;;;3.20;1.20;;;15.30;99.90;;;;;;2585746;54;20100;31
2023/09/23 00:45:51;;;;;;;3.10;1.30;;;15.20;99.90;;;;;;2604291;46;20032;31
2023/09/23 00:48:25;;;;;;;2.45;0.85;;;15.20;99.90;;;;;;2585693;54;20973;31
2023/09/23 00:51:00;;;;;;;2.95;0.80;;;15.20;99.90;;;;;;2585309;54;20019;31
2023/09/23 00:53:35;;;;;;;2.15;0.80;;;15.20;99.90;;;;;;2604365;46;20053;31
2023/09/23 00:56:19;;;;;;;3.63;1.00;;;15.20;99.90;;;;;;2585771;54;21185;31
2023/09/23 00:58:52;;;;;;;1.52;0.70;;;15.20;99.90;;;;;;2585722;54;20906;31
2023/09/23 01:01:28;;;;;;;2.33;0.90;;;15.10;99.90;;;;;;2585438;54;20089;31
2023/09/23 01:04:04;;;;;;;2.00;0.90;;;15.10;99.90;;;;;;2585724;54;20909;31
2023/09/23 01:06:39;;;;;;;3.20;1.10;;;15.10;99.90;;;;;;2596043;46;20027;31
2023/09/23 01:09:19;;;;;;;2.13;1.20;;;15.10;99.90;;;;;;2683122;39;22326;31
2023/09/23 01:12:02;;;;;;;2.70;0.90;;;15.10;99.90;;;;;;2585956;54;20022;31
2023/09/23 01:14:41;;;;;;;3.58;0.90;;;15.10;99.90;;;;;;2604392;47;20836;31
2023/09/23 01:17:15;;;;;;;1.90;1.00;;;15.20;99.90;;;;;;2585705;54;20053;31
2023/09/23 01:19:52;;;;;;;3.20;1.67;;;15.20;99.90;;;;;;2585603;54;20242;31
2023/09/23 01:22:29;;;;;;;4.95;1.50;;;15.20;99.90;;;;;;2585814;54;20027;31
2023/09/23 01:25:07;;;;;;;3.85;1.90;;;15.20;99.90;;;;;;2584869;54;20097;31
2023/09/23 01:27:43;;;;;;;4.25;2.20;;;15.20;99.90;;;;;;2584807;54;20779;31
2023/09/23 01:30:20;;;;;;;4.65;2.90;;;15.20;99.90;;;;;;2585791;54;20528;31
2023/09/23 01:32:56;;;;;;;4.80;3.10;;;15.20;99.90;;;;;;2585894;54;20607;31
2023/09/23 01:35:31;;;;;;;4.90;3.00;;;15.20;99.90;;;;;;2585580;54;20018;31
2023/09/23 01:38:15;;;;;;;4.72;2.83;;;15.20;99.90;;;;;;2586674;54;20061;31
2023/09/23 01:40:52;;;;;;;5.70;3.50;;;15.30;99.90;;;;;;2586068;54;20050;31
2023/09/23 01:43:32;;;;;;;9.35;4.25;;;15.30;99.90;;;;;;2605096;46;19940;31
2023/09/23 01:46:07;;;;;;;5.80;3.40;;;15.20;99.90;;;;;;2586467;54;20037;31
2023/09/23 01:48:42;;;;;;;6.55;3.80;;;15.20;99.90;;;;;;2604846;46;21003;31
2023/09/23 01:51:19;;;;;;;4.85;2.75;;;15.20;99.90;;;;;;2586602;54;21299;31
2023/09/23 01:53:57;;;;;;;4.70;2.83;;;15.20;99.90;;;;;;2586482;54;20037;31
2023/09/23 01:56:34;;;;;;;5.50;3.40;;;15.20;99.90;;;;;;2586234;54;20864;31
2023/09/23 01:59:09;;;;;;;4.45;2.85;;;15.20;99.90;;;;;;2585546;54;20241;31
2023/09/23 02:01:44;;;;;;;5.63;3.42;;;15.10;99.90;;;;;;2586393;54;20033;31
2023/09/23 02:04:21;;;;;;;9.75;3.63;;;15.10;99.90;;;;;;2586388;54;20026;31
2023/09/23 02:06:56;;;;;;;8.07;3.97;;;15.10;99.90;;;;;;2585611;54;20023;31
2023/09/23 02:09:37;;;;;;;6.63;3.33;;;15.00;99.90;;;;;;2585638;54;20246;31
2023/09/23 02:12:12;;;;;;;6.47;4.03;;;15.10;99.90;;;;;;2586272;54;20049;31
2023/09/23 02:14:51;;;;;;;7.15;4.05;;;15.10;99.90;;;;;;2586434;54;20797;31
2023/09/23 02:17:27;;;;;;;6.60;4.40;;;15.10;99.90;;;;;;2688879;39;22405;31
2023/09/23 02:20:04;;;;;;;7.88;3.72;;;15.10;99.90;;;;;;2586435;54;20026;31
2023/09/23 02:22:43;;;;;;;6.00;3.45;;;15.10;99.90;;;;;;2586525;54;20112;31
2023/09/23 02:25:27;;;;;;;5.60;3.55;;;15.10;99.90;;;;;;2604744;46;20030;31
2023/09/23 02:28:02;;;;;;;7.10;3.40;;;15.10;99.90;;;;;;2586443;54;20953;31
2023/09/23 02:30:41;;;;;;;5.78;3.28;;;15.10;99.90;;;;;;2585425;54;20030;31
2023/09/23 02:33:20;;;;;;;5.25;2.70;;;15.10;99.90;;;;;;2586204;54;20058;31
2023/09/23 02:36:00;;;;;;;6.77;3.67;;;15.00;99.90;;;;;;2585427;54;20037;31
2023/09/23 02:38:42;;;;;;;5.25;2.90;;;15.00;99.90;;;;;;2585431;54;20940;31
2023/09/23 02:41:24;;;;;;;7.75;2.80;;;15.00;99.90;;;;;;2586326;54;20825;31
2023/09/23 02:43:58;;;;;;;6.10;3.35;;;14.90;99.90;;;;;;2605070;46;20780;31
2023/09/23 02:46:33;;;;;;;6.75;3.30;;;14.90;99.90;;;;;;2586330;54;20883;31
2023/09/23 02:49:09;;;;;;;4.50;2.60;;;14.90;99.90;;;;;;2604758;46;20140;31
2023/09/23 02:51:45;;;;;;;5.47;3.28;;;14.80;99.90;;;;;;2586276;54;20948;31
2023/09/23 02:54:20;;;;;;;4.80;3.13;;;14.80;99.90;;;;;;2586175;54;19962;31
2023/09/23 02:57:03;;;;;;;4.82;2.53;;;14.80;99.90;;;;;;2585891;54;20036;31
2023/09/23 02:59:56;;;;;;;6.07;2.83;;;14.70;99.90;;;;;;2585916;54;20045;31
2023/09/23 03:02:35;;;;;;;3.40;1.80;;;14.70;99.90;;;;;;2586233;54;20775;31
2023/09/23 03:05:25;;;;;;;5.18;2.03;;;14.70;99.90;;;;;;2586169;54;20966;31
2023/09/23 03:08:01;;;;;;;3.70;2.20;;;14.70;99.90;;;;;;2586286;54;20026;31
2023/09/23 03:10:40;;;;;;;3.83;1.65;;;14.70;99.90;;;;;;2586499;54;20055;31
2023/09/23 03:13:26;;;;;;;3.67;2.00;;;14.60;99.90;;;;;;2586065;54;20832;31
2023/09/23 03:16:08;;;;;;;4.95;2.05;;;14.60;99.90;;;;;;2604409;46;20046;31
2023/09/23 03:18:55;;;;;;;3.75;1.60;;;14.60;99.90;;;;;;2586510;54;20023;31
2023/09/23 03:21:35;;;;;;;3.13;1.98;;;14.60;99.90;;;;;;2604907;46;20049;31
2023/09/23 03:24:13;;;;;;;3.27;1.90;;;14.60;99.90;;;;;;2586266;54;20112;31
2023/09/23 03:26:47;;;;;;;6.53;2.00;;;14.50;99.90;;;;;;2585359;54;20026;31
2023/09/23 03:29:22;;;;;;;2.63;1.53;;;14.50;99.90;;;;;;2586139;54;20859;31
2023/09/23 03:32:01;;;;;;;2.50;1.50;;;14.50;99.90;;;;;;2585187;54;20046;31
2023/09/23 03:34:37;;;;;;;3.47;1.83;;;14.60;99.90;;;;;;2586002;54;20258;31
2023/09/23 03:37:11;;;;;;;;;;;14.50;99.90;;;;;;2586086;54;20878;31
2023/09/23 03:39:43;;;;;;;3.20;1.70;;;14.60;99.90;;;;;;2604179;46;19985;31
2023/09/23 03:42:19;;;;;;;3.63;1.83;;;14.60;99.90;;;;;;2585986;54;20857;31
2023/09/23 03:44:57;;;;;;;;;;;14.60;99.90;;;;;;2586228;54;21147;31
2023/09/23 03:47:30;;;;;;;2.78;1.70;;;14.60;99.90;;;;;;2604854;46;19940;31
2023/09/23 03:50:07;;;;;;;4.25;1.65;;;14.60;99.90;;;;;;2586008;54;20109;31
2023/09/23 03:52:50;;;;;;;3.70;1.90;;;14.60;99.90;;;;;;2604223;46;20921;31
2023/09/23 03:55:27;;;;;;;6.10;2.00;;;14.60;99.90;;;;;;2585221;54;20131;31
2023/09/23 03:58:04;;;;;;;2.45;1.65;;;14.50;99.90;;;;;;2585809;54;20246;31
2023/09/23 04:00:40;;;;;;;;;;;14.50;99.90;;;;;;2604575;46;20956;31
2023/09/23 04:03:19;;;;;;;9.27;1.92;;;14.50;99.90;;;;;;2585449;54;22281;31
2023/09/23 04:06:01;;;;;;;4.40;1.80;;;14.50;99.90;;;;;;2595036;46;20030;31
2023/09/23 04:08:37;;;;;;;3.10;1.50;;;14.50;99.90;;;;;;2585909;54;20036;31
2023/09/23 04:11:18;;;;;;;4.45;1.70;;;14.60;99.90;;;;;;2585108;54;20838;31
2023/09/23 04:13:54;;;;;;;4.50;1.50;;;14.50;99.90;;;;;;2585115;54;19942;31
2023/09/23 04:16:43;;;;;;;3.72;1.65;;;14.50;99.90;;;;;;2586069;54;20794;31
2023/09/23 04:19:21;;;;;;;2.67;1.55;;;14.50;99.90;;;;;;2585726;54;20042;31
2023/09/23 04:21:58;;;;;;;3.55;1.70;;;14.50;99.90;;;;;;2604653;46;20940;31
2023/09/23 04:24:39;;;;;;;3.60;1.75;;;14.40;99.90;;;;;;2585886;54;20030;31
2023/09/23 04:27:13;;;;;;;2.92;1.42;;;14.40;99.90;;;;;;2585090;54;20053;31
2023/09/23 04:29:54;;;;;;;3.27;1.50;;;14.40;99.90;;;;;;2585234;54;20890;31
2023/09/23 04:32:36;;;;;;;2.30;1.00;;;14.40;99.90;;;;;;2597084;46;20249;31
2023/09/23 04:35:15;;;;;;;5.60;1.30;;;14.30;99.90;;;;;;2585827;54;20064;31
2023/09/23 04:37:50;;;;;;;5.30;1.70;;;14.30;99.90;;;;;;2585999;54;20897;31
2023/09/23 04:40:27;;;;;;;2.80;1.33;;;14.30;99.90;;;;;;2586043;54;20113;31
2023/09/23 04:43:01;;;;;;;2.80;1.47;;;14.20;99.90;;;;;;2586181;54;20972;31
2023/09/23 04:45:38;;;;;;;3.80;1.27;;;14.20;99.90;;;;;;2586103;54;20763;31
2023/09/23 04:48:20;;;;;;;3.20;1.30;;;14.20;99.90;;;;;;2601295;46;20086;31
2023/09/23 04:50:58;;;;;;;3.07;1.40;;;14.20;99.90;;;;;;2772184;31;20545;31
2023/09/23 04:53:36;;;;;;;5.05;1.45;;;14.20;99.90;;;;;;2585709;54;21144;31
2023/09/23 04:56:17;;;;;;;2.25;1.33;;;14.20;99.90;;;;;;2586058;54;20756;31
2023/09/23 04:59:00;;;;;;;2.65;1.40;;;14.20;99.90;;;;;;2586160;54;20965;31
2023/09/23 05:01:37;;;;;;;3.90;1.80;;;14.20;99.90;;;;;;2585814;54;19934;31
2023/09/23 05:04:16;;;;;;;;;;;14.20;99.90;;;;;;2604409;46;20257;31
2023/09/23 05:06:52;;;;;;;2.30;1.00;;;14.20;99.90;;;;;;2584830;54;20005;31
2023/09/23 05:09:30;;;;;;;3.63;1.65;;;14.20;99.90;;;;;;2585356;54;20049;31
2023/09/23 05:12:09;;;;;;;3.45;2.05;;;14.20;99.90;;;;;;2603684;46;20053;31
2023/09/23 05:14:48;;;;;;;2.70;1.70;;;14.20;99.90;;;;;;2584744;54;21718;31
2023/09/23 05:17:31;;;;;;;3.60;1.60;;;14.20;99.90;;;;;;2584672;54;21753;31
2023/09/23 05:20:16;;;;;;;3.20;1.60;;;14.30;99.90;;;;;;2590967;47;20029;31
2023/09/23 05:22:55;;;;;;;3.67;1.65;;;14.30;99.90;;;;;;2585646;54;20117;31
2023/09/23 05:25:31;;;;;;;3.50;1.70;;;14.30;99.90;;;;;;2585247;54;20085;31
2023/09/23 05:28:05;;;;;;;2.73;1.40;;;14.40;99.90;;;;;;2585231;54;19934;31
2023/09/23 05:30:46;;;;;;;5.53;1.57;;;14.40;99.90;;;;;;2585667;54;20050;31
2023/09/23 05:33:21;;;;;;;7.20;2.20;;;14.50;99.90;;;;;;2603704;47;21072;31
2023/09/23 05:35:59;;;;;;;5.20;2.42;;;14.50;99.90;;;;;;2604054;47;20028;31
2023/09/23 05:38:38;;;;;;;6.20;2.50;;;14.60;99.90;;;;;;2585563;54;20093;31
2023/09/23 05:41:29;;;;;;;;;;;14.80;99.90;;;;;;2586006;54;20033;31
2023/09/23 05:44:04;;;;;;;2.58;1.85;;;15.00;99.90;;;;;;2585373;54;19961;31
2023/09/23 05:46:43;;;;;;;3.63;2.03;;;15.40;99.90;;;;;;2584861;54;20874;31
2023/09/23 05:49:20;;;;;;;6.45;2.00;;;15.90;99.90;;;;;;2683543;39;20564;31
2023/09/23 05:52:02;;;;;;;3.35;1.90;;;16.30;99.90;;;;;;2585538;54;19957;31
2023/09/23 05:54:42;;;;;;;4.05;1.70;;;16.60;99.90;;;;;;2585532;54;20027;31
2023/09/23 05:57:21;;;;;;;3.50;1.93;;;16.70;99.90;;;;;;2584817;54;20026;31
2023/09/23 05:59:54;;;;;;;3.88;2.25;;;16.90;99.90;;;;;;2585399;54;20120;31
2023/09/23 06:02:44;;;;;;;4.05;2.20;;;17.20;99.90;;;;;;2585414;54;20052;31
2023/09/23 06:05:22;;;;;;;3.58;1.77;;;17.70;99.90;;;;;;2584768;54;20053;31
2023/09/23 06:08:04;;;;;;;3.30;1.52;;;18.10;99.90;;;;;;2585868;54;20026;31
2023/09/23 06:10:45;;;;;;;2.42;1.30;;;18.20;99.90;;;;;;2585700;54;20783;31
2023/09/23 06:13:25;;;;;;;2.95;1.60;;;18.10;99.90;;;;;;2585442;54;20820;31
2023/09/23 06:16:06;;;;;;;4.03;1.30;;;18.00;99.90;;;;;;2584711;54;20109;31
2023/09/23 06:18:44;;;;;;;3.50;1.77;;;17.90;99.90;;;;;;2584635;54;20034;31
2023/09/23 06:21:20;;;;;;;3.40;1.60;;;17.60;99.90;;;;;;2586061;54;20731;31
2023/09/23 06:24:00;;;;;;;3.75;1.90;;;17.60;99.90;;;;;;2604469;46;20057;31
2023/09/23 06:26:37;;;;;;;3.80;1.92;;;17.60;99.90;;;;;;2586501;54;20037;31
2023/09/23 06:29:15;;;;;;;4.75;2.30;;;18.10;99.90;;;;;;2586386;54;20023;31
2023/09/23 06:31:55;;;;;;;2.50;1.63;;;18.50;99.90;;;;;;2604863;46;20034;31
2023/09/23 06:34:38;;;;;;;2.90;1.50;;;18.70;99.90;;;;;;2586415;54;20026;31
2023/09/23 06:37:17;;;;;;;3.17;1.55;;;19.10;99.90;;;;;;2586529;54;21870;31
2023/09/23 06:39:56;;;;;;;3.43;1.37;;;19.10;99.90;;;;;;2585551;54;20926;31
2023/09/23 06:42:31;;;;;;;4.10;1.27;;;19.40;99.90;;;;;;2594053;46;20105;31
2023/09/23 06:45:09;;;;;;;3.30;1.27;;;19.60;99.90;;;;;;2585547;54;20884;31
2023/09/23 06:47:51;;;;;;;4.17;1.60;;;19.90;99.90;;;;;;2585396;54;20084;31
2023/09/23 06:50:28;;;;;;;2.70;1.50;;;20.00;99.90;;;;;;2585317;54;20921;31
2023/09/23 06:53:03;;;;;;;2.30;1.00;;;20.00;99.90;;;;;;2604701;46;20026;31
2023/09/23 06:55:41;;;;;;;2.70;1.30;;;20.10;99.90;;;;;;2586226;54;20081;31
2023/09/23 06:58:14;;;;;;;4.25;1.10;;;20.10;99.90;;;;;;2586110;54;20791;31
2023/09/23 07:00:52;;;;;;;4.85;1.40;;;20.20;99.90;;;;;;2586248;54;20027;31
2023/09/23 07:03:29;;;;;;;3.65;1.25;;;20.40;99.90;;;;;;2586226;54;20579;31
2023/09/23 07:06:08;;;;;;;4.25;1.30;;;20.60;99.90;;;;;;2593480;46;20902;31
2023/09/23 07:08:47;;;;;;;3.00;1.40;;;20.80;99.90;;;;;;2585385;54;20956;31
2023/09/23 07:11:27;;;;;;;2.00;1.13;;;20.90;99.90;;;;;;2586108;54;20089;31
2023/09/23 07:14:05;;;;;;;3.25;1.60;;;21.20;99.90;;;;;;2684171;39;20660;31
2023/09/23 07:16:43;;;;;;;1.77;0.85;;;21.40;99.90;;;;;;2586396;54;20747;31
2023/09/23 07:19:18;;;;;;;1.25;0.60;;;21.50;99.90;;;;;;2586156;54;20835;31
2023/09/23 07:21:55;;;;;;;2.03;0.95;;;21.60;99.90;;;;;;2586400;54;20033;31
2023/09/23 07:24:27;;;;;;;3.28;1.13;;;21.70;99.90;;;;;;2586111;54;20053;31
2023/09/23 07:27:07;;;;;;;2.50;0.82;;;21.70;99.90;;;;;;2586094;54;20859;31
2023/09/23 07:29:45;;;;;;;2.07;1.10;;;;;;;;;;2586244;54;21253;31
2023/09/23 07:32:23;;;;;;;2.92;0.80;;;21.80;99.90;;;;;;2604119;46;20884;31
2023/09/23 07:34:56;;;;;;;1.25;0.70;;;21.70;99.90;;;;;;2586388;54;20879;31
2023/09/23 07:37:31;;;;;;;2.37;0.87;;;21.50;99.90;;;;;;2585352;54;21010;31
2023/09/23 07:40:08;;;;;;;2.20;0.75;;;21.40;99.90;;;;;;2604620;46;20838;31
2023/09/23 07:42:47;;;;;;;3.65;0.95;;;21.10;99.90;;;;;;2586191;54;20029;31
2023/09/23 07:45:21;;;;;;;2.22;0.63;;;21.00;99.90;;;;;;2586132;54;20855;31
2023/09/23 07:47:58;;;;;;;2.35;0.65;;;20.80;99.90;;;;;;2585709;54;20793;31
2023/09/23 07:50:33;;;;;;;2.50;0.90;;;20.70;99.90;;;;;;2586047;54;20032;31
2023/09/23 07:53:09;;;;;;;3.55;1.08;;;20.60;99.90;;;;;;2585509;54;20816;31
2023/09/23 07:55:51;;;;;;;2.20;1.10;;;20.50;99.90;;;;;;2585190;54;20793;31
2023/09/23 07:58:30;;;;;;;1.98;0.80;;;20.30;99.90;;;;;;2584901;54;20023;31
2023/09/23 08:01:05;;;;;;;2.20;1.02;;;20.20;99.90;;;;;;2683263;39;22240;31
2023/09/23 08:03:43;;;;;;;2.83;1.00;;;20.20;99.90;;;;;;2586084;54;20030;31
2023/09/23 08:06:20;;;;;;;1.80;0.63;;;20.30;99.90;;;;;;2586165;54;19934;31
2023/09/23 08:08:58;;;;;;;1.00;0.80;;;20.30;99.90;;;;;;2586037;54;20031;31
2023/09/23 08:11:39;;;;;;;1.92;0.73;;;20.30;99.90;;;;;;2586168;54;20786;31
2023/09/23 08:14:20;;;;;;;1.53;0.90;;;20.30;99.90;;;;;;2586100;54;20786;31
2023/09/23 08:16:58;;;;;;;1.20;0.50;;;20.20;99.90;;;;;;2585877;54;21001;31
2023/09/23 08:19:33;;;;;;;1.73;0.47;;;20.10;99.90;;;;;;2584996;54;20868;31
2023/09/23 08:22:06;;;;;;;;;;;20.00;99.90;;;;;;2586257;54;20941;31
2023/09/23 08:24:46;;;;;;;1.27;0.50;;;19.80;99.90;;;;;;2584963;54;19950;31
2023/09/23 08:27:22;;;;;;;1.00;0.52;;;19.70;99.90;;;;;;2603840;46;20248;31
2023/09/23 08:30:05;;;;;;;1.45;0.85;;;19.60;99.90;;;;;;2604452;46;20889;31
2023/09/23 08:32:44;;;;;;;1.00;0.70;;;19.50;99.90;;;;;;2585778;54;20792;31
2023/09/23 08:35:18;;;;;;;1.13;0.63;;;19.30;99.90;;;;;;2586153;54;21021;31
2023/09/23 08:37:53;;;;;;;1.88;0.80;;;19.30;99.90;;;;;;2585976;54;20023;31
2023/09/23 08:40:29;;;;;;;1.52;0.80;;;19.20;99.90;;;;;;2585956;54;20911;31
2023/09/23 08:43:06;;;;;;;1.60;0.82;;;19.20;99.90;;;;;;2595622;46;20033;31
2023/09/23 08:45:46;;;;;;;1.13;0.50;;;19.10;99.90;;;;;;2584992;54;20839;31
2023/09/23 08:48:21;;;;;;;3.58;0.85;;;19.10;99.90;;;;;;2590899;46;20867;31
2023/09/23 08:51:06;;;;;;;3.50;0.80;;;19.10;99.90;;;;;;2593079;46;20980;31
2023/09/23 08:53:43;;;;;;;2.00;0.83;;;19.00;99.90;;;;;;2586128;54;20792;31
2023/09/23 08:56:20;;;;;;;1.90;1.07;;;19.10;99.90;;;;;;2585746;54;20116;31
2023/09/23 08:58:56;;;;;;;1.50;0.80;;;19.10;99.90;;;;;;2604441;46;20880;31
2023/09/23 09:01:42;;;;;;;4.20;0.70;;;19.20;99.90;;;;;;2585548;54;20058;31
2023/09/23 09:04:20;;;;;;;1.80;1.15;;;19.20;99.90;;;;;;2585674;54;20747;31
2023/09/23 09:06:55;;;;;;;0.95;0.50;;;19.10;99.90;;;;;;2603955;46;20093;31
2023/09/23 09:09:29;;;;;;;1.60;0.50;;;19.20;99.90;;;;;;2585959;54;20918;31
2023/09/23 09:12:09;;;;;;;2.05;0.60;;;19.20;99.90;;;;;;2584969;54;20053;31
2023/09/23 09:14:44;;;;;;;0.90;0.50;;;19.10;99.90;;;;;;2585714;54;20760;31
2023/09/23 09:17:22;;;;;;;1.95;0.50;;;19.10;99.90;;;;;;2604464;47;20873;31
2023/09/23 09:20:06;;;;;;;0.80;0.40;;;19.10;99.90;;;;;;2585837;54;20054;31
2023/09/23 09:22:39;;;;;;;3.00;0.65;;;19.10;99.90;;;;;;2585722;54;20034;31
2023/09/23 09:25:15;;;;;;;0.80;0.50;;;19.10;99.90;;;;;;2604260;47;20029;31
2023/09/23 09:27:56;;;;;;;1.77;0.80;;;19.10;99.90;;;;;;2585830;54;20907;31
2023/09/23 09:33:23;;;;;;;1.13;0.40;;;19.00;99.90;;;;;;2603372;47;20034;31
2023/09/23 09:35:58;;;;;;;1.50;0.53;;;19.00;99.90;;;;;;2585714;54;20037;31
2023/09/23 09:38:38;;;;;;;1.15;0.43;;;19.10;99.90;;;;;;2604292;47;20909;31
2023/09/23 09:41:17;;;;;;;1.73;0.60;;;19.10;99.90;;;;;;2585839;54;20026;31
2023/09/23 09:43:55;;;;;;;1.10;0.50;;;19.10;99.90;;;;;;2585426;54;20899;31
2023/09/23 09:46:33;;;;;;;0.90;0.50;;;19.20;99.90;;;;;;2585511;54;20855;31
2023/09/23 09:49:16;;;;;;;2.10;0.65;;;19.20;99.90;;;;;;2585544;54;20910;31
2023/09/23 09:52:04;;;;;;;2.25;0.80;;;19.30;99.90;;;;;;2585412;54;20055;31
2023/09/23 09:54:42;;;;;;;3.90;0.70;;;19.40;99.90;;;;;;2585657;54;20100;31
2023/09/23 09:57:16;;;;;;;1.57;0.70;;;19.40;99.90;;;;;;2586571;54;21003;31
2023/09/23 09:59:58;;;;;;;1.45;0.65;;;19.60;99.90;;;;;;2605038;46;20030;31
2023/09/23 10:02:52;;;;;;;1.70;0.90;;;19.60;99.90;;;;;;2586641;54;20049;31
2023/09/23 10:05:44;;;;;;;1.70;0.60;;;19.60;99.90;;;;;;2586309;54;20042;31
2023/09/23 10:08:24;;;;;;;1.80;0.60;;;19.60;99.90;;;;;;2585891;54;20276;31
2023/09/23 10:11:09;;;;;;;1.10;0.50;;;19.60;99.90;;;;;;2586187;54;20402;31
2023/09/23 10:13:50;;;;;;;0.70;0.40;;;19.80;99.90;;;;;;2586240;54;20027;31
2023/09/23 10:16:25;;;;;;;3.08;0.50;;;19.80;99.90;;;;;;2604842;46;20026;31
2023/09/23 10:19:07;;;;;;;0.90;0.40;;;19.90;99.90;;;;;;2586290;54;20038;31
2023/09/23 10:21:47;;;;;;;2.35;0.75;;;20.00;99.90;;;;;;2586438;54;20874;31
2023/09/23 10:24:28;;;;;;;0.73;0.40;;;19.90;99.90;;;;;;2586285;54;20035;31
2023/09/23 10:27:06;;;;;;;0.97;0.40;;;19.90;99.90;;;;;;2586115;54;20033;31
2023/09/23 10:29:48;;;;;;;1.85;0.45;;;19.90;99.90;;;;;;2586278;54;20030;31
2023/09/23 10:32:22;;;;;;;0.80;0.50;;;19.90;99.90;;;;;;2586335;54;20938;31
2023/09/23 10:35:04;;;;;;;1.23;0.37;;;19.80;99.90;;;;;;2586066;54;20027;31
2023/09/23 10:37:46;;;;;;;1.17;0.40;;;19.80;99.90;;;;;;2585996;54;20281;31
2023/09/23 10:40:24;;;;;;;1.05;0.30;;;19.80;99.90;;;;;;2586282;54;20023;31
2023/09/23 10:43:01;;;;;;;0.75;0.40;;;19.90;99.90;;;;;;2586355;54;20050;31
2023/09/23 10:45:39;;;;;;;1.27;0.47;;;19.90;99.90;;;;;;2586246;54;20027;31
2023/09/23 10:48:19;;;;;;;0.90;0.27;;;20.00;99.90;;;;;;2586129;54;21609;31
2023/09/23 10:50:58;;;;;;;0.65;0.30;;;20.00;99.90;;;;;;2585237;54;20033;31
2023/09/23 10:53:37;;;;;;;1.25;0.35;;;20.00;99.90;;;;;;2585768;54;20148;31
2023/09/23 10:56:13;;;;;;;1.85;0.30;;;20.00;99.90;;;;;;2586467;54;20922;31
2023/09/23 10:58:51;;;;;;;1.65;0.50;;;20.00;99.90;;;;;;2683964;39;21640;31
2023/09/23 11:01:29;;;;;;;1.17;0.70;;;20.10;99.90;;;;;;2604482;46;20077;31
2023/09/23 11:04:10;;;;;;;0.95;0.50;;;20.00;99.90;;;;;;2604587;46;20030;31
2023/09/23 11:09:28;;;;;;;1.57;0.83;;;20.00;99.90;;;;;;2585619;54;20033;31
2023/09/23 11:12:10;;;;;;;1.35;0.35;;;19.90;99.90;;;;;;2586276;54;20030;31
2023/09/23 11:14:51;;;;;;;1.20;0.40;;;20.00;99.90;;;;;;2603777;46;19935;31
2023/09/23 11:17:30;;;;;;;0.90;0.30;;;20.20;99.90;;;;;;2586089;54;20026;31
2023/09/23 11:20:13;;;;;;;0.97;0.57;;;20.20;99.90;;;;;;2585970;54;20029;31
2023/09/23 11:22:47;;;;;;;1.25;0.50;;;20.20;99.90;;;;;;2586193;54;20082;31
2023/09/23 11:25:24;;;;;;;0.80;0.40;;;20.20;99.90;;;;;;2585809;54;20029;31
2023/09/23 11:28:07;;;;;;;1.35;0.40;;;20.10;99.90;;;;;;2586243;54;19957;31
2023/09/23 11:30:44;;;;;;;0.80;0.55;;;20.10;99.90;;;;;;2604811;46;20845;31
2023/09/23 11:33:24;;;;;;;1.00;0.60;;;20.00;99.90;;;;;;2586043;54;21036;31
2023/09/23 11:36:01;;;;;;;1.80;0.70;;;19.90;99.90;;;;;;2604739;46;20051;31
2023/09/23 11:38:36;;;;;;;1.02;0.60;;;19.90;99.90;;;;;;2586174;54;20066;31
2023/09/23 11:41:20;;;;;;;1.02;0.40;;;19.90;99.90;;;;;;2586156;54;20042;31
2023/09/23 11:43:59;;;;;;;1.90;0.50;;;19.90;99.90;;;;;;2586273;54;20026;31
2023/09/23 11:46:37;;;;;;;1.00;0.55;;;20.00;99.90;;;;;;2585859;54;20902;31
2023/09/23 11:49:13;;;;;;;0.55;0.30;;;20.00;99.90;;;;;;2585197;54;20980;31
2023/09/23 11:51:48;;;;;;;2.10;0.60;;;20.00;99.90;;;;;;2604381;46;20034;31
2023/09/23 11:54:28;;;;;;;1.80;0.60;;;20.00;99.90;;;;;;2585962;54;20026;31
2023/09/23 11:57:09;;;;;;;1.00;0.60;;;20.00;99.90;;;;;;2683959;39;21468;31
2023/09/23 11:59:46;;;;;;;2.65;0.40;;;20.00;99.90;;;;;;2604315;46;20938;31
2023/09/23 12:02:23;;;;;;;2.03;0.43;;;20.10;99.90;;;;;;2585360;54;20962;31
2023/09/23 12:05:06;;;;;;;0.95;0.60;;;20.00;99.90;;;;;;2683075;39;22425;31
2023/09/23 12:07:42;;;;;;;0.80;0.40;;;20.00;99.90;;;;;;2585284;54;20034;31
2023/09/23 12:10:24;;;;;;;1.50;0.50;;;20.00;99.90;;;;;;2586089;54;20026;31
2023/09/23 12:13:06;;;;;;;0.45;0.35;;;19.90;99.90;;;;;;2684035;39;20413;31
2023/09/23 12:15:43;;;;;;;0.87;0.40;;;19.90;99.90;;;;;;2585798;54;20961;31
2023/09/23 12:18:21;;;;;;;1.50;0.70;;;19.90;99.90;;;;;;2584896;54;20797;31
2023/09/23 12:20:58;;;;;;;1.10;0.60;;;19.80;99.90;;;;;;2585119;54;20888;31
2023/09/23 12:23:35;;;;;;;0.93;0.40;;;19.80;99.90;;;;;;2586016;54;20975;31
2023/09/23 12:26:12;;;;;;;0.67;0.43;;;19.70;99.90;;;;;;2585092;54;20029;31
2023/09/23 12:28:49;;;;;;;1.02;0.55;;;19.70;99.90;;;;;;2585866;54;20250;31
2023/09/23 12:31:27;;;;;;;1.35;0.70;;;19.70;99.90;;;;;;2586156;54;20023;31
2023/09/23 12:34:07;;;;;;;1.05;0.50;;;19.80;99.90;;;;;;2585490;54;20031;31
2023/09/23 12:36:41;;;;;;;2.43;0.47;;;19.80;99.90;;;;;;2585769;54;20938;31
2023/09/23 12:39:22;;;;;;;0.80;0.40;;;19.80;99.90;;;;;;2585952;54;20898;31
2023/09/23 12:41:58;;;;;;;1.70;0.40;;;19.80;99.90;;;;;;2586012;54;20033;31
2023/09/23 12:44:40;;;;;;;1.70;0.50;;;19.70;99.90;;;;;;2586058;54;20077;31
2023/09/23 12:47:27;;;;;;;1.10;0.53;;;19.70;99.90;;;;;;2683723;39;20432;31
2023/09/23 12:50:25;;;;;;;0.85;0.50;;;19.70;99.90;;;;;;2586043;54;20896;31
2023/09/23 12:53:01;;;;;;;0.63;0.35;;;19.60;99.90;;;;;;2683737;39;20417;31
2023/09/23 12:55:35;;;;;;;4.25;0.75;;;19.50;99.90;;;;;;2585665;54;20030;31
2023/09/23 12:58:14;;;;;;;1.15;0.70;;;19.50;99.90;;;;;;2682929;39;22390;31
2023/09/23 13:00:54;;;;;;;1.67;0.75;;;19.50;99.90;;;;;;2584927;54;20777;31
2023/09/23 13:03:30;;;;;;;1.25;0.60;;;19.40;99.90;;;;;;2585513;54;20870;31
2023/09/23 13:06:14;;;;;;;3.70;0.60;;;19.40;99.90;;;;;;2585295;54;20058;31
2023/09/23 13:08:49;;;;;;;0.70;0.50;;;19.50;99.90;;;;;;2585861;54;20891;31
2023/09/23 13:11:30;;;;;;;2.00;0.73;;;19.50;99.90;;;;;;2585780;54;20150;31
2023/09/23 13:14:11;;;;;;;1.50;0.60;;;19.50;99.90;;;;;;2585734;54;20030;31
2023/09/23 13:16:54;;;;;;;2.00;0.50;;;19.50;99.90;;;;;;2585879;54;19934;31
2023/09/23 13:19:29;;;;;;;1.70;0.82;;;19.50;99.90;;;;;;2604044;47;20038;31
2023/09/23 13:22:13;;;;;;;1.45;0.57;;;19.50;99.90;;;;;;2585643;54;20918;31
2023/09/23 13:24:49;;;;;;;2.17;0.52;;;19.60;99.90;;;;;;2604317;47;20081;31
2023/09/23 13:27:26;;;;;;;2.80;0.80;;;19.70;99.90;;;;;;2603990;47;20030;31
2023/09/23 13:30:04;;;;;;;1.95;0.50;;;19.70;99.90;;;;;;2586093;54;20045;31
2023/09/23 13:32:54;;;;;;;1.30;0.75;;;19.70;99.90;;;;;;2585578;54;20875;31
2023/09/23 13:35:34;;;;;;;1.40;0.65;;;19.60;99.90;;;;;;2604874;46;20895;31
2023/09/23 13:38:21;;;;;;;0.97;0.40;;;19.60;99.90;;;;;;2586382;54;20957;31
2023/09/23 13:41:01;;;;;;;0.75;0.52;;;19.60;99.90;;;;;;2586531;54;20053;31
2023/09/23 13:43:37;;;;;;;0.85;0.50;;;19.50;99.90;;;;;;2586157;54;20923;31
2023/09/23 13:46:15;;;;;;;3.00;1.20;;;19.40;99.90;;;;;;2586592;54;20951;31
2023/09/23 13:48:55;;;;;;;1.70;0.70;;;19.40;99.90;;;;;;2586333;54;20060;31
2023/09/23 13:51:31;;;;;;;1.10;0.80;;;19.30;99.90;;;;;;2586325;54;20917;31
2023/09/23 13:54:11;;;;;;;1.20;0.70;;;19.20;99.90;;;;;;2586097;54;20812;31
2023/09/23 13:56:45;;;;;;;1.33;0.93;;;19.10;99.90;;;;;;2586625;54;20969;31
2023/09/23 13:59:21;;;;;;;1.50;0.65;;;19.00;99.90;;;;;;2586493;54;20909;31
2023/09/23 14:02:02;;;;;;;1.77;0.60;;;18.90;99.90;;;;;;2585719;54;20866;31